sensor_id;sensor_type;location;lat;lon;timestamp;temperature;humidity
6843;DHT22;3460;52.028;8.916;2023-07-16T00:00:13;21.20;99.90
6843;DHT22;3460;52.028;8.916;2023-07-16T00:02:40;21.10;99.90
6843;DHT22;3460;52.028;8.916;2023-07-16T00:05:08;21.10;99.90
6843;DHT22;3460;52.028;8.916;2023-07-16T00:07:35;21.20;99.90
6843;DHT22;3460;52.028;8.916;2023-07-16T00:10:03;21.10;1.00
6843;DHT22;3460;52.028;8.916;2023-07-16T00:12:30;21.00;1.00
6843;DHT22;3460;52.028;8.916;2023-07-16T00:14:57;21.00;1.00
6843;DHT22;3460;52.028;8.916;2023-07-16T00:17:24;21.00;1.00
6843;DHT22;3460;52.028;8.916;2023-07-16T00:19:51;21.00;1.00
6843;DHT22;3460;52.028;8.916;2023-07-16T00:22:17;21.00;1.00
6843;DHT22;3460;52.028;8.916;2023-07-16T00:24:44;21.00;1.00
6843;DHT22;3460;52.028;8.916;2023-07-16T00:27:12;20.90;1.00
6843;DHT22;3460;52.028;8.916;2023-07-16T00:29:39;20.90;1.00
6843;DHT22;3460;52.028;8.916;2023-07-16T00:32:06;20.90;1.00
6843;DHT22;3460;52.028;8.916;2023-07-16T00:34:33;20.80;1.00
6843;DHT22;3460;52.028;8.916;2023-07-16T00:37:00;20.80;1.00
6843;DHT22;3460;52.028;8.916;2023-07-16T00:39:28;20.80;1.00
6843;DHT22;3460;52.028;8.916;2023-07-16T00:41:55;20.80;1.00
6843;DHT22;3460;52.028;8.916;2023-07-16T00:44:23;20.90;1.00
6843;DHT22;3460;52.028;8.916;2023-07-16T00:46:50;20.90;1.00
6843;DHT22;3460;52.028;8.916;2023-07-16T00:49:18;20.80;1.00
6843;DHT22;3460;52.028;8.916;2023-07-16T00:51:45;20.80;1.00
6843;DHT22;3460;52.028;8.916;2023-07-16T00:54:12;20.70;1.00
6843;DHT22;3460;52.028;8.916;2023-07-16T00:56:40;20.70;1.00
6843;DHT22;3460;52.028;8.916;2023-07-16T00:59:06;20.70;1.00
6843;DHT22;3460;52.028;8.916;2023-07-16T01:01:35;20.80;1.00
6843;DHT22;3460;52.028;8.916;2023-07-16T01:04:03;20.70;1.00
6843;DHT22;3460;52.028;8.916;2023-07-16T01:06:33;20.80;1.00
6843;DHT22;3460;52.028;8.916;2023-07-16T01:09:03;20.70;1.00
6843;DHT22;3460;52.028;8.916;2023-07-16T01:11:34;20.70;1.00
6843;DHT22;3460;52.028;8.916;2023-07-16T01:14:02;20.70;1.00
6843;DHT22;3460;52.028;8.916;2023-07-16T01:16:29;20.70;1.00
6843;DHT22;3460;52.028;8.916;2023-07-16T01:18:58;20.70;1.00
6843;DHT22;3460;52.028;8.916;2023-07-16T01:21:29;20.70;1.00
6843;DHT22;3460;52.028;8.916;2023-07-16T01:27:10;20.70;1.00
6843;DHT22;3460;52.028;8.916;2023-07-16T01:29:43;20.60;1.00
6843;DHT22;3460;52.028;8.916;2023-07-16T01:32:11;20.60;1.00
6843;DHT22;3460;52.028;8.916;2023-07-16T01:34:39;20.50;1.00
6843;DHT22;3460;52.028;8.916;2023-07-16T01:37:06;20.50;1.00
6843;DHT22;3460;52.028;8.916;2023-07-16T01:39:33;20.40;1.00
6843;DHT22;3460;52.028;8.916;2023-07-16T01:42:00;20.50;1.00
6843;DHT22;3460;52.028;8.916;2023-07-16T01:44:27;20.40;1.00
6843;DHT22;3460;52.028;8.916;2023-07-16T01:47:08;20.30;56.80
6843;DHT22;3460;52.028;8.916;2023-07-16T01:49:35;20.20;99.90
6843;DHT22;3460;52.028;8.916;2023-07-16T01:52:03;20.10;99.90
6843;DHT22;3460;52.028;8.916;2023-07-16T01:54:30;19.90;99.90
6843;DHT22;3460;52.028;8.916;2023-07-16T01:56:57;19.70;99.90
6843;DHT22;3460;52.028;8.916;2023-07-16T01:59:24;19.50;99.90
6843;DHT22;3460;52.028;8.916;2023-07-16T02:01:50;19.50;99.90
6843;DHT22;3460;52.028;8.916;2023-07-16T02:04:20;19.30;99.90
6843;DHT22;3460;52.028;8.916;2023-07-16T02:06:47;19.20;99.90
6843;DHT22;3460;52.028;8.916;2023-07-16T02:09:14;19.10;99.90
6843;DHT22;3460;52.028;8.916;2023-07-16T02:11:41;19.10;99.90
6843;DHT22;3460;52.028;8.916;2023-07-16T02:14:08;19.10;99.90
6843;DHT22;3460;52.028;8.916;2023-07-16T02:16:35;19.00;99.90
6843;DHT22;3460;52.028;8.916;2023-07-16T02:19:02;19.00;99.90
6843;DHT22;3460;52.028;8.916;2023-07-16T02:21:30;19.00;99.90
6843;DHT22;3460;52.028;8.916;2023-07-16T02:23:57;18.90;99.90
6843;DHT22;3460;52.028;8.916;2023-07-16T02:26:24;18.80;99.90
6843;DHT22;3460;52.028;8.916;2023-07-16T02:28:51;18.80;99.90
6843;DHT22;3460;52.028;8.916;2023-07-16T02:31:17;18.70;99.90
6843;DHT22;3460;52.028;8.916;2023-07-16T02:33:44;18.70;99.90
6843;DHT22;3460;52.028;8.916;2023-07-16T02:36:11;18.70;99.90
6843;DHT22;3460;52.028;8.916;2023-07-16T02:38:39;18.70;99.90
6843;DHT22;3460;52.028;8.916;2023-07-16T02:41:06;18.60;99.90
6843;DHT22;3460;52.028;8.916;2023-07-16T02:43:33;18.60;99.90
6843;DHT22;3460;52.028;8.916;2023-07-16T02:46:00;18.60;99.90
6843;DHT22;3460;52.028;8.916;2023-07-16T02:48:26;18.50;99.90
6843;DHT22;3460;52.028;8.916;2023-07-16T02:50:53;18.50;99.90
6843;DHT22;3460;52.028;8.916;2023-07-16T02:53:20;18.50;99.90
6843;DHT22;3460;52.028;8.916;2023-07-16T02:55:48;18.50;99.90
6843;DHT22;3460;52.028;8.916;2023-07-16T02:58:15;18.50;99.90
6843;DHT22;3460;52.028;8.916;2023-07-16T03:00:42;18.40;99.90
6843;DHT22;3460;52.028;8.916;2023-07-16T03:03:08;18.40;99.90
6843;DHT22;3460;52.028;8.916;2023-07-16T03:05:35;18.40;99.90
6843;DHT22;3460;52.028;8.916;2023-07-16T03:08:02;18.40;99.90
6843;DHT22;3460;52.028;8.916;2023-07-16T03:10:29;18.50;99.90
6843;DHT22;3460;52.028;8.916;2023-07-16T03:12:57;18.50;99.90
6843;DHT22;3460;52.028;8.916;2023-07-16T03:15:24;18.50;99.90
6843;DHT22;3460;52.028;8.916;2023-07-16T03:17:51;18.40;99.90
6843;DHT22;3460;52.028;8.916;2023-07-16T03:20:17;18.50;99.90
6843;DHT22;3460;52.028;8.916;2023-07-16T03:22:44;18.40;99.90
6843;DHT22;3460;52.028;8.916;2023-07-16T03:25:11;18.40;99.90
6843;DHT22;3460;52.028;8.916;2023-07-16T03:27:38;18.40;99.90
6843;DHT22;3460;52.028;8.916;2023-07-16T03:30:07;18.30;99.90
6843;DHT22;3460;52.028;8.916;2023-07-16T03:32:34;18.30;99.90
6843;DHT22;3460;52.028;8.916;2023-07-16T03:35:01;18.20;99.90
6843;DHT22;3460;52.028;8.916;2023-07-16T03:37:28;18.20;99.90
6843;DHT22;3460;52.028;8.916;2023-07-16T03:39:54;18.10;99.90
6843;DHT22;3460;52.028;8.916;2023-07-16T03:42:21;18.10;99.90
6843;DHT22;3460;52.028;8.916;2023-07-16T03:44:48;18.10;99.90
6843;DHT22;3460;52.028;8.916;2023-07-16T03:47:16;18.00;99.90
6843;DHT22;3460;52.028;8.916;2023-07-16T03:49:43;18.00;99.90
6843;DHT22;3460;52.028;8.916;2023-07-16T03:52:10;18.00;99.90
6843;DHT22;3460;52.028;8.916;2023-07-16T03:54:37;17.90;99.90
6843;DHT22;3460;52.028;8.916;2023-07-16T03:57:04;17.90;99.90
6843;DHT22;3460;52.028;8.916;2023-07-16T03:59:31;17.90;99.90
6843;DHT22;3460;52.028;8.916;2023-07-16T04:01:58;17.80;99.90
6843;DHT22;3460;52.028;8.916;2023-07-16T04:04:26;17.80;99.90
6843;DHT22;3460;52.028;8.916;2023-07-16T04:06:52;17.80;99.90
6843;DHT22;3460;52.028;8.916;2023-07-16T04:09:19;17.80;99.90
6843;DHT22;3460;52.028;8.916;2023-07-16T04:11:46;17.80;99.90
6843;DHT22;3460;52.028;8.916;2023-07-16T04:14:13;17.80;99.90
6843;DHT22;3460;52.028;8.916;2023-07-16T04:16:40;17.80;99.90
6843;DHT22;3460;52.028;8.916;2023-07-16T04:19:07;17.90;99.90
6843;DHT22;3460;52.028;8.916;2023-07-16T04:21:36;17.90;99.90
6843;DHT22;3460;52.028;8.916;2023-07-16T04:24:03;18.00;99.90
6843;DHT22;3460;52.028;8.916;2023-07-16T04:26:30;18.10;99.90
6843;DHT22;3460;52.028;8.916;2023-07-16T04:28:57;18.20;99.90
6843;DHT22;3460;52.028;8.916;2023-07-16T04:31:24;18.50;99.90
6843;DHT22;3460;52.028;8.916;2023-07-16T04:33:51;18.60;99.90
6843;DHT22;3460;52.028;8.916;2023-07-16T04:36:18;18.60;99.90
6843;DHT22;3460;52.028;8.916;2023-07-16T04:38:46;18.60;99.90
6843;DHT22;3460;52.028;8.916;2023-07-16T04:41:13;18.70;99.90
6843;DHT22;3460;52.028;8.916;2023-07-16T04:43:40;18.70;99.90
6843;DHT22;3460;52.028;8.916;2023-07-16T04:46:06;18.70;99.90
6843;DHT22;3460;52.028;8.916;2023-07-16T04:48:33;18.60;99.90
6843;DHT22;3460;52.028;8.916;2023-07-16T04:51:00;18.70;99.90
6843;DHT22;3460;52.028;8.916;2023-07-16T04:53:27;18.60;99.90
6843;DHT22;3460;52.028;8.916;2023-07-16T04:55:55;18.60;99.90
6843;DHT22;3460;52.028;8.916;2023-07-16T04:58:22;18.50;99.90
6843;DHT22;3460;52.028;8.916;2023-07-16T05:00:49;18.70;99.90
6843;DHT22;3460;52.028;8.916;2023-07-16T05:03:16;19.10;99.90
6843;DHT22;3460;52.028;8.916;2023-07-16T05:05:43;19.40;99.90
6843;DHT22;3460;52.028;8.916;2023-07-16T05:08:10;19.70;99.90
6843;DHT22;3460;52.028;8.916;2023-07-16T05:10:37;20.00;99.90
6843;DHT22;3460;52.028;8.916;2023-07-16T05:13:05;20.30;99.90
6843;DHT22;3460;52.028;8.916;2023-07-16T05:15:32;20.40;99.90
6843;DHT22;3460;52.028;8.916;2023-07-16T05:17:59;20.60;99.90
6843;DHT22;3460;52.028;8.916;2023-07-16T05:20:26;20.70;65.30
6843;DHT22;3460;52.028;8.916;2023-07-16T05:22:52;20.70;50.50
6843;DHT22;3460;52.028;8.916;2023-07-16T05:25:19;20.70;80.10
6843;DHT22;3460;52.028;8.916;2023-07-16T05:27:46;20.70;66.40
6843;DHT22;3460;52.028;8.916;2023-07-16T05:30:14;20.70;42.20
6843;DHT22;3460;52.028;8.916;2023-07-16T05:32:41;20.60;1.00
6843;DHT22;3460;52.028;8.916;2023-07-16T05:35:08;20.50;45.00
6843;DHT22;3460;52.028;8.916;2023-07-16T05:37:35;20.40;42.90
6843;DHT22;3460;52.028;8.916;2023-07-16T05:40:02;20.40;50.40
6843;DHT22;3460;52.028;8.916;2023-07-16T05:42:29;20.30;69.60
6843;DHT22;3460;52.028;8.916;2023-07-16T05:44:56;20.00;99.10
6843;DHT22;3460;52.028;8.916;2023-07-16T05:47:24;19.90;99.90
6843;DHT22;3460;52.028;8.916;2023-07-16T05:49:51;19.80;99.90
6843;DHT22;3460;52.028;8.916;2023-07-16T05:52:18;19.70;99.90
6843;DHT22;3460;52.028;8.916;2023-07-16T05:54:45;19.60;99.90
6843;DHT22;3460;52.028;8.916;2023-07-16T05:57:11;19.70;99.90
6843;DHT22;3460;52.028;8.916;2023-07-16T05:59:38;19.70;99.90
6843;DHT22;3460;52.028;8.916;2023-07-16T06:02:06;19.90;99.90
6843;DHT22;3460;52.028;8.916;2023-07-16T06:04:34;19.90;99.90
6843;DHT22;3460;52.028;8.916;2023-07-16T06:07:01;20.00;99.90
6843;DHT22;3460;52.028;8.916;2023-07-16T06:09:28;20.00;99.90
6843;DHT22;3460;52.028;8.916;2023-07-16T06:11:55;20.10;99.90
6843;DHT22;3460;52.028;8.916;2023-07-16T06:14:22;20.10;1.00
6843;DHT22;3460;52.028;8.916;2023-07-16T06:16:49;20.20;1.00
6843;DHT22;3460;52.028;8.916;2023-07-16T06:19:16;20.10;1.00
6843;DHT22;3460;52.028;8.916;2023-07-16T06:21:44;20.20;1.00
6843;DHT22;3460;52.028;8.916;2023-07-16T06:24:11;20.10;1.00
6843;DHT22;3460;52.028;8.916;2023-07-16T06:26:37;20.10;1.00
6843;DHT22;3460;52.028;8.916;2023-07-16T06:29:04;20.10;1.00
6843;DHT22;3460;52.028;8.916;2023-07-16T06:31:31;20.10;1.00
6843;DHT22;3460;52.028;8.916;2023-07-16T06:33:58;20.20;1.00
6843;DHT22;3460;52.028;8.916;2023-07-16T06:36:24;20.20;1.00
6843;DHT22;3460;52.028;8.916;2023-07-16T06:38:53;20.20;1.00
6843;DHT22;3460;52.028;8.916;2023-07-16T06:41:19;20.20;1.00
6843;DHT22;3460;52.028;8.916;2023-07-16T06:43:46;20.30;1.00
6843;DHT22;3460;52.028;8.916;2023-07-16T06:46:13;20.40;1.00
6843;DHT22;3460;52.028;8.916;2023-07-16T06:48:40;20.40;1.00
6843;DHT22;3460;52.028;8.916;2023-07-16T06:51:06;20.40;1.00
6843;DHT22;3460;52.028;8.916;2023-07-16T06:53:33;20.40;1.00
6843;DHT22;3460;52.028;8.916;2023-07-16T06:56:03;20.60;1.00
6843;DHT22;3460;52.028;8.916;2023-07-16T06:58:33;20.60;1.00
6843;DHT22;3460;52.028;8.916;2023-07-16T07:01:00;20.70;1.00
6843;DHT22;3460;52.028;8.916;2023-07-16T07:03:27;20.80;1.00
6843;DHT22;3460;52.028;8.916;2023-07-16T07:05:54;21.00;1.00
6843;DHT22;3460;52.028;8.916;2023-07-16T07:08:20;21.00;1.00
6843;DHT22;3460;52.028;8.916;2023-07-16T07:10:49;21.00;1.00
6843;DHT22;3460;52.028;8.916;2023-07-16T07:13:17;21.10;1.00
6843;DHT22;3460;52.028;8.916;2023-07-16T07:15:44;21.10;99.90
6843;DHT22;3460;52.028;8.916;2023-07-16T07:18:10;21.10;99.90
6843;DHT22;3460;52.028;8.916;2023-07-16T07:20:37;21.00;99.90
6843;DHT22;3460;52.028;8.916;2023-07-16T07:23:05;21.20;1.00
6843;DHT22;3460;52.028;8.916;2023-07-16T07:25:32;21.20;99.90
6843;DHT22;3460;52.028;8.916;2023-07-16T07:27:59;21.40;99.90
6843;DHT22;3460;52.028;8.916;2023-07-16T07:30:27;21.50;99.90
6843;DHT22;3460;52.028;8.916;2023-07-16T07:32:54;21.60;99.90
6843;DHT22;3460;52.028;8.916;2023-07-16T07:35:21;21.70;99.90
6843;DHT22;3460;52.028;8.916;2023-07-16T07:37:48;21.80;99.90
6843;DHT22;3460;52.028;8.916;2023-07-16T07:40:15;21.60;99.90
6843;DHT22;3460;52.028;8.916;2023-07-16T07:42:42;21.60;99.90
6843;DHT22;3460;52.028;8.916;2023-07-16T07:45:10;21.60;99.90
6843;DHT22;3460;52.028;8.916;2023-07-16T07:47:38;21.70;99.90
6843;DHT22;3460;52.028;8.916;2023-07-16T07:50:06;21.60;99.90
6843;DHT22;3460;52.028;8.916;2023-07-16T07:52:33;21.50;99.90
6843;DHT22;3460;52.028;8.916;2023-07-16T07:54:59;21.40;99.90
6843;DHT22;3460;52.028;8.916;2023-07-16T07:57:26;21.40;99.90
6843;DHT22;3460;52.028;8.916;2023-07-16T07:59:53;21.60;99.90
6843;DHT22;3460;52.028;8.916;2023-07-16T08:02:23;21.70;99.90
6843;DHT22;3460;52.028;8.916;2023-07-16T08:04:51;21.90;99.90
6843;DHT22;3460;52.028;8.916;2023-07-16T08:07:18;21.80;99.90
6843;DHT22;3460;52.028;8.916;2023-07-16T08:09:45;21.90;99.90
6843;DHT22;3460;52.028;8.916;2023-07-16T08:12:12;22.00;99.90
6843;DHT22;3460;52.028;8.916;2023-07-16T08:14:39;22.10;99.90
6843;DHT22;3460;52.028;8.916;2023-07-16T08:17:07;22.20;99.90
6843;DHT22;3460;52.028;8.916;2023-07-16T08:19:34;22.10;99.90
6843;DHT22;3460;52.028;8.916;2023-07-16T08:22:02;22.10;99.90
6843;DHT22;3460;52.028;8.916;2023-07-16T08:24:29;21.90;99.90
6843;DHT22;3460;52.028;8.916;2023-07-16T08:26:55;22.00;99.90
6843;DHT22;3460;52.028;8.916;2023-07-16T08:29:22;22.10;99.90
6843;DHT22;3460;52.028;8.916;2023-07-16T08:31:50;22.10;99.90
6843;DHT22;3460;52.028;8.916;2023-07-16T08:34:16;22.00;99.90
6843;DHT22;3460;52.028;8.916;2023-07-16T08:36:43;21.80;99.90
6843;DHT22;3460;52.028;8.916;2023-07-16T08:39:11;21.60;99.90
6843;DHT22;3460;52.028;8.916;2023-07-16T08:41:38;21.50;99.90
6843;DHT22;3460;52.028;8.916;2023-07-16T08:44:05;21.70;99.90
6843;DHT22;3460;52.028;8.916;2023-07-16T08:46:32;22.00;99.90
6843;DHT22;3460;52.028;8.916;2023-07-16T08:49:00;22.20;99.90
6843;DHT22;3460;52.028;8.916;2023-07-16T08:51:29;22.40;99.90
6843;DHT22;3460;52.028;8.916;2023-07-16T08:53:56;22.60;99.90
6843;DHT22;3460;52.028;8.916;2023-07-16T08:56:24;22.80;99.90
6843;DHT22;3460;52.028;8.916;2023-07-16T08:58:53;22.80;1.00
6843;DHT22;3460;52.028;8.916;2023-07-16T09:01:22;22.60;94.10
6843;DHT22;3460;52.028;8.916;2023-07-16T09:03:49;22.50;99.90
6843;DHT22;3460;52.028;8.916;2023-07-16T09:06:16;22.50;74.60
6843;DHT22;3460;52.028;8.916;2023-07-16T09:08:43;22.60;6.60
6843;DHT22;3460;52.028;8.916;2023-07-16T09:11:11;22.60;88.40
6843;DHT22;3460;52.028;8.916;2023-07-16T09:13:45;22.80;84.90
6843;DHT22;3460;52.028;8.916;2023-07-16T09:16:12;22.80;1.00
6843;DHT22;3460;52.028;8.916;2023-07-16T09:18:40;22.90;1.00
6843;DHT22;3460;52.028;8.916;2023-07-16T09:21:07;23.00;1.00
6843;DHT22;3460;52.028;8.916;2023-07-16T09:23:34;23.00;1.00
6843;DHT22;3460;52.028;8.916;2023-07-16T09:26:02;23.10;1.00
6843;DHT22;3460;52.028;8.916;2023-07-16T09:28:30;23.30;1.00
6843;DHT22;3460;52.028;8.916;2023-07-16T09:31:03;23.40;1.00
6843;DHT22;3460;52.028;8.916;2023-07-16T09:33:31;23.50;1.00
6843;DHT22;3460;52.028;8.916;2023-07-16T09:35:58;23.60;1.00
6843;DHT22;3460;52.028;8.916;2023-07-16T09:38:27;23.60;1.00
6843;DHT22;3460;52.028;8.916;2023-07-16T09:40:56;23.70;1.00
6843;DHT22;3460;52.028;8.916;2023-07-16T09:43:23;23.40;1.00
6843;DHT22;3460;52.028;8.916;2023-07-16T09:45:50;23.30;1.00
6843;DHT22;3460;52.028;8.916;2023-07-16T09:48:18;23.50;1.00
6843;DHT22;3460;52.028;8.916;2023-07-16T09:50:49;23.70;1.00
6843;DHT22;3460;52.028;8.916;2023-07-16T09:53:19;23.80;1.00
6843;DHT22;3460;52.028;8.916;2023-07-16T09:55:46;24.00;99.90
6843;DHT22;3460;52.028;8.916;2023-07-16T09:58:14;24.10;99.90
6843;DHT22;3460;52.028;8.916;2023-07-16T10:00:45;24.10;1.00
6843;DHT22;3460;52.028;8.916;2023-07-16T10:03:14;24.20;99.90
6843;DHT22;3460;52.028;8.916;2023-07-16T10:05:43;24.30;99.90
6843;DHT22;3460;52.028;8.916;2023-07-16T10:08:16;24.30;99.90
6843;DHT22;3460;52.028;8.916;2023-07-16T10:10:44;24.30;99.90
6843;DHT22;3460;52.028;8.916;2023-07-16T10:13:14;24.10;99.90
6843;DHT22;3460;52.028;8.916;2023-07-16T10:15:51;24.10;99.90
6843;DHT22;3460;52.028;8.916;2023-07-16T10:18:29;24.20;99.90
6843;DHT22;3460;52.028;8.916;2023-07-16T10:21:02;24.30;99.90
6843;DHT22;3460;52.028;8.916;2023-07-16T10:23:38;24.30;99.90
6843;DHT22;3460;52.028;8.916;2023-07-16T10:26:06;24.40;99.90
6843;DHT22;3460;52.028;8.916;2023-07-16T10:28:33;24.30;99.90
6843;DHT22;3460;52.028;8.916;2023-07-16T10:31:01;24.40;99.90
6843;DHT22;3460;52.028;8.916;2023-07-16T10:33:28;24.30;99.90
6843;DHT22;3460;52.028;8.916;2023-07-16T10:35:57;24.30;99.90
6843;DHT22;3460;52.028;8.916;2023-07-16T10:38:26;24.40;99.90
6843;DHT22;3460;52.028;8.916;2023-07-16T10:40:53;24.50;99.90
6843;DHT22;3460;52.028;8.916;2023-07-16T10:43:20;24.60;99.90
6843;DHT22;3460;52.028;8.916;2023-07-16T10:45:47;24.60;99.90
6843;DHT22;3460;52.028;8.916;2023-07-16T10:48:17;24.70;99.90
6843;DHT22;3460;52.028;8.916;2023-07-16T10:50:43;24.70;52.40
6843;DHT22;3460;52.028;8.916;2023-07-16T10:53:11;24.60;99.90
6843;DHT22;3460;52.028;8.916;2023-07-16T10:55:41;24.40;99.90
6843;DHT22;3460;52.028;8.916;2023-07-16T10:58:08;24.50;99.90
6843;DHT22;3460;52.028;8.916;2023-07-16T11:00:38;24.40;99.90
6843;DHT22;3460;52.028;8.916;2023-07-16T11:03:05;24.60;99.90
6843;DHT22;3460;52.028;8.916;2023-07-16T11:05:32;24.70;99.90
6843;DHT22;3460;52.028;8.916;2023-07-16T11:07:59;24.70;93.40
6843;DHT22;3460;52.028;8.916;2023-07-16T11:10:28;24.70;99.90
6843;DHT22;3460;52.028;8.916;2023-07-16T11:12:57;24.90;99.90
6843;DHT22;3460;52.028;8.916;2023-07-16T11:15:33;25.00;99.90
6843;DHT22;3460;52.028;8.916;2023-07-16T11:18:00;25.00;99.90
6843;DHT22;3460;52.028;8.916;2023-07-16T11:20:29;25.10;76.70
6843;DHT22;3460;52.028;8.916;2023-07-16T11:22:58;25.20;84.70
6843;DHT22;3460;52.028;8.916;2023-07-16T11:25:26;25.30;99.90
6843;DHT22;3460;52.028;8.916;2023-07-16T11:27:55;25.20;3.10
6843;DHT22;3460;52.028;8.916;2023-07-16T11:30:24;25.20;99.90
6843;DHT22;3460;52.028;8.916;2023-07-16T11:32:53;25.30;99.90
6843;DHT22;3460;52.028;8.916;2023-07-16T11:35:20;25.20;99.90
6843;DHT22;3460;52.028;8.916;2023-07-16T11:37:47;25.20;1.00
6843;DHT22;3460;52.028;8.916;2023-07-16T11:40:17;25.30;99.90
6843;DHT22;3460;52.028;8.916;2023-07-16T11:42:44;25.30;99.90
6843;DHT22;3460;52.028;8.916;2023-07-16T11:45:18;25.20;46.00
6843;DHT22;3460;52.028;8.916;2023-07-16T11:47:46;25.20;54.60
6843;DHT22;3460;52.028;8.916;2023-07-16T11:50:13;25.40;70.80
6843;DHT22;3460;52.028;8.916;2023-07-16T11:52:40;25.40;1.00
6843;DHT22;3460;52.028;8.916;2023-07-16T11:55:07;25.30;1.00
6843;DHT22;3460;52.028;8.916;2023-07-16T11:57:35;25.30;1.00
6843;DHT22;3460;52.028;8.916;2023-07-16T12:00:02;25.40;1.00
6843;DHT22;3460;52.028;8.916;2023-07-16T12:02:31;25.50;1.00
6843;DHT22;3460;52.028;8.916;2023-07-16T12:04:59;25.50;1.00
6843;DHT22;3460;52.028;8.916;2023-07-16T12:07:32;25.40;1.00
6843;DHT22;3460;52.028;8.916;2023-07-16T12:10:00;25.40;1.00
6843;DHT22;3460;52.028;8.916;2023-07-16T12:12:26;25.40;1.00
6843;DHT22;3460;52.028;8.916;2023-07-16T12:14:53;25.00;1.00
6843;DHT22;3460;52.028;8.916;2023-07-16T12:17:20;24.80;1.00
6843;DHT22;3460;52.028;8.916;2023-07-16T12:19:47;24.60;1.00
6843;DHT22;3460;52.028;8.916;2023-07-16T12:22:17;24.70;28.50
6843;DHT22;3460;52.028;8.916;2023-07-16T12:24:44;24.70;10.50
6843;DHT22;3460;52.028;8.916;2023-07-16T12:27:11;24.90;30.50
6843;DHT22;3460;52.028;8.916;2023-07-16T12:29:38;25.20;70.50
6843;DHT22;3460;52.028;8.916;2023-07-16T12:32:06;25.30;1.00
6843;DHT22;3460;52.028;8.916;2023-07-16T12:34:33;25.30;1.00
6843;DHT22;3460;52.028;8.916;2023-07-16T12:37:01;25.40;1.00
6843;DHT22;3460;52.028;8.916;2023-07-16T12:39:29;25.40;1.00
6843;DHT22;3460;52.028;8.916;2023-07-16T12:41:56;25.50;1.00
6843;DHT22;3460;52.028;8.916;2023-07-16T12:44:22;25.50;1.00
6843;DHT22;3460;52.028;8.916;2023-07-16T12:46:49;25.40;1.00
6843;DHT22;3460;52.028;8.916;2023-07-16T12:49:16;25.40;1.00
6843;DHT22;3460;52.028;8.916;2023-07-16T12:51:43;25.30;1.00
6843;DHT22;3460;52.028;8.916;2023-07-16T12:54:10;25.60;1.00
6843;DHT22;3460;52.028;8.916;2023-07-16T12:56:38;25.60;1.00
6843;DHT22;3460;52.028;8.916;2023-07-16T12:59:05;25.50;1.00
6843;DHT22;3460;52.028;8.916;2023-07-16T13:01:32;25.50;1.00
6843;DHT22;3460;52.028;8.916;2023-07-16T13:03:59;25.60;3.50
6843;DHT22;3460;52.028;8.916;2023-07-16T13:06:26;25.80;1.00
6843;DHT22;3460;52.028;8.916;2023-07-16T13:08:52;26.00;1.00
6843;DHT22;3460;52.028;8.916;2023-07-16T13:11:19;26.10;99.90
6843;DHT22;3460;52.028;8.916;2023-07-16T13:13:47;26.10;1.00
6843;DHT22;3460;52.028;8.916;2023-07-16T13:16:14;26.10;99.90
6843;DHT22;3460;52.028;8.916;2023-07-16T13:18:41;26.10;99.90
6843;DHT22;3460;52.028;8.916;2023-07-16T13:21:08;26.20;99.90
6843;DHT22;3460;52.028;8.916;2023-07-16T13:23:34;26.20;99.90
6843;DHT22;3460;52.028;8.916;2023-07-16T13:26:01;26.20;1.00
6843;DHT22;3460;52.028;8.916;2023-07-16T13:28:28;26.30;99.90
6843;DHT22;3460;52.028;8.916;2023-07-16T13:30:56;26.10;99.90
6843;DHT22;3460;52.028;8.916;2023-07-16T13:33:23;25.80;99.90
6843;DHT22;3460;52.028;8.916;2023-07-16T13:35:50;25.50;99.90
6843;DHT22;3460;52.028;8.916;2023-07-16T13:38:17;25.30;99.90
6843;DHT22;3460;52.028;8.916;2023-07-16T13:40:43;25.10;1.00
6843;DHT22;3460;52.028;8.916;2023-07-16T13:43:10;25.20;1.00
6843;DHT22;3460;52.028;8.916;2023-07-16T13:45:38;25.40;1.00
6843;DHT22;3460;52.028;8.916;2023-07-16T13:48:06;25.50;1.00
6843;DHT22;3460;52.028;8.916;2023-07-16T13:50:33;25.50;1.00
6843;DHT22;3460;52.028;8.916;2023-07-16T13:53:00;25.20;1.00
6843;DHT22;3460;52.028;8.916;2023-07-16T13:55:27;25.30;1.00
6843;DHT22;3460;52.028;8.916;2023-07-16T13:57:54;25.50;1.00
6843;DHT22;3460;52.028;8.916;2023-07-16T14:00:21;25.60;1.00
6843;DHT22;3460;52.028;8.916;2023-07-16T14:02:48;25.60;1.00
6843;DHT22;3460;52.028;8.916;2023-07-16T14:05:16;25.40;1.00
6843;DHT22;3460;52.028;8.916;2023-07-16T14:07:44;25.40;1.00
6843;DHT22;3460;52.028;8.916;2023-07-16T14:10:12;25.30;1.00
6843;DHT22;3460;52.028;8.916;2023-07-16T14:12:39;25.30;1.00
6843;DHT22;3460;52.028;8.916;2023-07-16T14:15:06;25.40;1.00
6843;DHT22;3460;52.028;8.916;2023-07-16T14:17:33;25.40;1.00
6843;DHT22;3460;52.028;8.916;2023-07-16T14:20:00;25.20;1.00
6843;DHT22;3460;52.028;8.916;2023-07-16T14:22:28;25.20;1.00
6843;DHT22;3460;52.028;8.916;2023-07-16T14:24:55;25.30;1.00
6843;DHT22;3460;52.028;8.916;2023-07-16T14:27:22;25.40;1.00
6843;DHT22;3460;52.028;8.916;2023-07-16T14:29:49;25.40;1.00
6843;DHT22;3460;52.028;8.916;2023-07-16T14:32:15;25.40;1.00
6843;DHT22;3460;52.028;8.916;2023-07-16T14:34:42;25.40;1.00
6843;DHT22;3460;52.028;8.916;2023-07-16T14:37:09;25.40;1.00
6843;DHT22;3460;52.028;8.916;2023-07-16T14:39:37;25.40;1.00
6843;DHT22;3460;52.028;8.916;2023-07-16T14:42:04;25.40;1.00
6843;DHT22;3460;52.028;8.916;2023-07-16T14:44:31;25.40;1.00
6843;DHT22;3460;52.028;8.916;2023-07-16T14:46:58;25.40;1.00
6843;DHT22;3460;52.028;8.916;2023-07-16T14:49:24;25.40;1.00
6843;DHT22;3460;52.028;8.916;2023-07-16T14:51:51;25.50;1.00
6843;DHT22;3460;52.028;8.916;2023-07-16T14:54:18;25.50;1.00
6843;DHT22;3460;52.028;8.916;2023-07-16T14:56:46;25.60;1.00
6843;DHT22;3460;52.028;8.916;2023-07-16T14:59:13;25.50;1.00
6843;DHT22;3460;52.028;8.916;2023-07-16T15:01:40;25.50;1.00
6843;DHT22;3460;52.028;8.916;2023-07-16T15:04:07;25.30;1.00
6843;DHT22;3460;52.028;8.916;2023-07-16T15:06:33;25.20;1.00
6843;DHT22;3460;52.028;8.916;2023-07-16T15:09:00;25.10;1.00
6843;DHT22;3460;52.028;8.916;2023-07-16T15:11:27;25.10;1.00
6843;DHT22;3460;52.028;8.916;2023-07-16T15:13:55;25.10;1.00
6843;DHT22;3460;52.028;8.916;2023-07-16T15:16:22;25.20;1.00
6843;DHT22;3460;52.028;8.916;2023-07-16T15:18:49;25.20;1.00
6843;DHT22;3460;52.028;8.916;2023-07-16T15:21:15;25.30;1.00
6843;DHT22;3460;52.028;8.916;2023-07-16T15:23:43;25.20;1.00
6843;DHT22;3460;52.028;8.916;2023-07-16T15:26:11;25.20;1.00
6843;DHT22;3460;52.028;8.916;2023-07-16T15:28:38;25.20;1.00
6843;DHT22;3460;52.028;8.916;2023-07-16T15:31:09;25.10;1.00
6843;DHT22;3460;52.028;8.916;2023-07-16T15:33:37;25.00;1.00
6843;DHT22;3460;52.028;8.916;2023-07-16T15:36:04;25.00;1.00
6843;DHT22;3460;52.028;8.916;2023-07-16T15:38:31;25.20;1.00
6843;DHT22;3460;52.028;8.916;2023-07-16T15:40:58;25.20;1.00
6843;DHT22;3460;52.028;8.916;2023-07-16T15:43:25;25.20;66.10
6843;DHT22;3460;52.028;8.916;2023-07-16T15:45:51;25.30;1.00
6843;DHT22;3460;52.028;8.916;2023-07-16T15:48:19;25.40;1.00
6843;DHT22;3460;52.028;8.916;2023-07-16T15:50:46;25.30;8.30
6843;DHT22;3460;52.028;8.916;2023-07-16T15:53:13;25.30;1.00
6843;DHT22;3460;52.028;8.916;2023-07-16T15:55:40;25.30;1.00
6843;DHT22;3460;52.028;8.916;2023-07-16T15:58:07;25.20;1.00
6843;DHT22;3460;52.028;8.916;2023-07-16T16:00:33;25.20;1.00
6843;DHT22;3460;52.028;8.916;2023-07-16T16:03:00;25.20;1.00
6843;DHT22;3460;52.028;8.916;2023-07-16T16:05:29;25.10;1.00
6843;DHT22;3460;52.028;8.916;2023-07-16T16:08:15;25.00;80.00
6843;DHT22;3460;52.028;8.916;2023-07-16T16:10:45;24.90;48.00
6843;DHT22;3460;52.028;8.916;2023-07-16T16:13:13;25.00;66.80